Time,TemperatureF,DewpointF,PressureIn,WindDirection,WindDirectionDegrees,WindSpeedMPH,WindSpeedGustMPH,Humidity,HourlyPrecipIn,Conditions,Clouds,dailyrainin,SoftwareType,DateUTC
2013-09-16 00:11:00,61.5,60.6,29.67,NNW,337,2.7,-999.0,97,-99.99,,,0.00,Acu-Link.com,2013-09-16 07:11:00,
2013-09-16 00:26:00,61.5,60.9,29.68,West,270,1.7,-999.0,98,-99.99,,,0.00,Acu-Link.com,2013-09-16 07:26:00,
2013-09-16 00:42:00,61.3,60.7,29.68,West,270,1.1,-999.0,98,-99.99,,,0.00,Acu-Link.com,2013-09-16 07:42:00,
2013-09-16 00:57:00,61.3,60.7,29.68,ESE,112,0.0,-999.0,98,-99.99,,,0.00,Acu-Link.com,2013-09-16 07:57:00,
2013-09-16 01:13:00,61.3,60.7,29.68,NE,45,0.0,-999.0,98,-99.99,,,0.00,Acu-Link.com,2013-09-16 08:13:00,
2013-09-16 01:28:00,61.3,60.7,29.68,NNW,337,1.1,-999.0,98,-99.99,,,0.00,Acu-Link.com,2013-09-16 08:28:00,
2013-09-16 01:44:00,61.2,60.6,29.68,NNW,337,1.7,-999.0,98,-99.99,,,0.00,Acu-Link.com,2013-09-16 08:44:00,
2013-09-16 01:59:00,61.0,60.4,29.68,NNE,22,2.2,-999.0,98,-99.99,,,0.00,Acu-Link.com,2013-09-16 08:59:00,
2013-09-16 02:14:00,60.8,60.2,29.68,NW,315,2.2,-999.0,98,-99.99,,,0.00,Acu-Link.com,2013-09-16 09:14:00,
2013-09-16 02:29:00,60.6,60.0,29.68,WNW,292,1.7,-999.0,98,-99.99,,,0.00,Acu-Link.com,2013-09-16 09:29:00,
2013-09-16 02:44:00,60.6,60.0,29.68,NNE,22,0.0,-999.0,98,-99.99,,,0.00,Acu-Link.com,2013-09-16 09:44:00,
2013-09-16 02:59:00,60.4,59.8,29.68,NE,45,1.7,-999.0,98,-99.99,,,0.00,Acu-Link.com,2013-09-16 09:59:00,
2013-09-16 03:15:00,60.1,59.5,29.68,West,270,3.2,-999.0,98,-99.99,,,0.00,Acu-Link.com,2013-09-16 10:15:00,
2013-09-16 03:30:00,60.1,59.8,29.68,NW,315,1.7,-999.0,99,-99.99,,,0.00,Acu-Link.com,2013-09-16 10:30:00,
2013-09-16 03:45:00,59.9,59.6,29.68,WNW,292,2.2,-999.0,99,-99.99,,,0.00,Acu-Link.com,2013-09-16 10:45:00,
2013-09-16 04:01:00,59.9,59.6,29.67,SW,225,4.2,-999.0,99,-99.99,,,0.00,Acu-Link.com,2013-09-16 11:01:00,
2013-09-16 04:16:00,59.5,59.2,29.67,NW,315,1.7,-999.0,99,-99.99,,,0.00,Acu-Link.com,2013-09-16 11:16:00,
2013-09-16 04:31:00,59.4,59.1,29.68,SW,225,2.2,-999.0,99,-99.99,,,0.00,Acu-Link.com,2013-09-16 11:31:00,
2013-09-16 04:46:00,59.4,59.1,29.68,NW,315,3.2,-999.0,99,-99.99,,,0.00,Acu-Link.com,2013-09-16 11:46:00,
2013-09-16 05:01:00,59.0,58.7,29.68,NW,315,3.7,-999.0,99,-99.99,,,0.00,Acu-Link.com,2013-09-16 12:01:00,
2013-09-16 05:16:00,58.8,58.5,29.68,NW,315,3.2,-999.0,99,-99.99,,,0.00,Acu-Link.com,2013-09-16 12:16:00,
2013-09-16 05:32:00,58.8,58.5,29.68,NW,315,1.7,-999.0,99,-99.99,,,0.00,Acu-Link.com,2013-09-16 12:32:00,
2013-09-16 05:47:00,58.6,58.3,29.68,ESE,112,1.7,-999.0,99,-99.99,,,0.00,Acu-Link.com,2013-09-16 12:47:00,
2013-09-16 06:02:00,58.6,58.3,29.68,North,0,3.7,-999.0,99,-99.99,,,0.00,Acu-Link.com,2013-09-16 13:02:00,
2013-09-16 06:17:00,58.5,58.2,29.69,NW,315,3.7,-999.0,99,-99.99,,,0.00,Acu-Link.com,2013-09-16 13:17:00,
2013-09-16 06:33:00,58.1,57.8,29.69,WNW,292,2.7,-999.0,99,-99.99,,,0.00,Acu-Link.com,2013-09-16 13:33:00,
2013-09-16 06:48:00,58.1,57.5,29.69,WSW,247,0.0,-999.0,98,-99.99,,,0.00,Acu-Link.com,2013-09-16 13:48:00,
2013-09-16 07:03:00,58.1,57.5,29.69,WNW,292,0.0,-999.0,98,-99.99,,,0.00,Acu-Link.com,2013-09-16 14:03:00,
2013-09-16 07:18:00,57.9,57.3,29.68,NW,315,3.7,-999.0,98,-99.99,,,0.00,Acu-Link.com,2013-09-16 14:18:00,
2013-09-16 07:34:00,58.1,57.5,29.69,NNW,337,0.0,-999.0,98,-99.99,,,0.00,Acu-Link.com,2013-09-16 14:34:00,
2013-09-16 07:49:00,58.3,57.5,29.69,WNW,292,3.2,-999.0,97,-99.99,,,0.00,Acu-Link.com,2013-09-16 14:49:00,
2013-09-16 08:04:00,59.0,57.6,29.70,West,270,3.7,-999.0,95,-99.99,,,0.00,Acu-Link.com,2013-09-16 15:04:00,
2013-09-16 08:19:00,61.7,58.7,29.70,East,90,3.2,-999.0,90,-99.99,,,0.00,Acu-Link.com,2013-09-16 15:19:00,
2013-09-16 08:35:00,63.9,58.6,29.70,SSW,202,0.0,-999.0,83,-99.99,,,0.00,Acu-Link.com,2013-09-16 15:35:00,
2013-09-16 08:50:00,65.8,59.1,29.71,West,270,2.2,-999.0,79,-99.99,,,0.00,Acu-Link.com,2013-09-16 15:50:00,
2013-09-16 09:05:00,67.6,59.0,29.71,SSW,202,1.7,-999.0,74,-99.99,,,0.00,Acu-Link.com,2013-09-16 16:05:00,
2013-09-16 09:20:00,68.4,59.0,29.71,NNW,337,2.2,-999.0,72,-99.99,,,0.00,Acu-Link.com,2013-09-16 16:20:00,
2013-09-16 09:35:00,65.8,58.4,29.72,SW,225,2.2,-999.0,77,-99.99,,,0.00,Acu-Link.com,2013-09-16 16:35:00,
2013-09-16 09:50:00,66.7,58.9,29.71,North,0,3.7,-999.0,76,-99.99,,,0.00,Acu-Link.com,2013-09-16 16:50:00,
2013-09-16 10:06:00,65.8,59.1,29.72,NE,45,2.2,-999.0,79,-99.99,,,0.00,Acu-Link.com,2013-09-16 17:06:00,
2013-09-16 10:21:00,67.6,59.8,29.71,SE,135,3.2,-999.0,76,-99.99,,,0.00,Acu-Link.com,2013-09-16 17:21:00,
2013-09-16 10:36:00,68.0,60.1,29.71,NNE,22,2.7,-999.0,76,-99.99,,,0.00,Acu-Link.com,2013-09-16 17:36:00,
2013-09-16 10:51:00,68.5,59.5,29.71,NNE,22,4.2,-999.0,73,-99.99,,,0.00,Acu-Link.com,2013-09-16 17:51:00,
2013-09-16 11:06:00,71.2,60.1,29.71,West,270,4.7,-999.0,68,-99.99,,,0.00,Acu-Link.com,2013-09-16 18:06:00,
2013-09-16 11:21:00,71.6,60.0,29.71,West,270,4.2,-999.0,67,-99.99,,,0.00,Acu-Link.com,2013-09-16 18:21:00,
2013-09-16 11:37:00,74.7,60.3,29.71,NE,45,4.7,-999.0,61,-99.99,,,0.00,Acu-Link.com,2013-09-16 18:37:00,
2013-09-16 11:52:00,75.7,60.3,29.70,East,90,4.2,-999.0,59,-99.99,,,0.00,Acu-Link.com,2013-09-16 18:52:00,
2013-09-16 12:07:00,74.8,60.0,29.70,NW,315,5.8,-999.0,60,-99.99,,,0.00,Acu-Link.com,2013-09-16 19:07:00,
2013-09-16 12:22:00,73.0,59.6,29.70,SSW,202,4.7,-999.0,63,-99.99,,,0.00,Acu-Link.com,2013-09-16 19:22:00,
2013-09-16 12:38:00,72.3,59.0,29.70,West,270,6.3,-999.0,63,-99.99,,,0.00,Acu-Link.com,2013-09-16 19:38:00,
2013-09-16 12:53:00,72.3,59.0,29.70,NNE,22,4.2,-999.0,63,-99.99,,,0.00,Acu-Link.com,2013-09-16 19:53:00,
2013-09-16 13:08:00,74.3,58.6,29.69,SSW,202,2.2,-999.0,58,-99.99,,,0.00,Acu-Link.com,2013-09-16 20:08:00,
2013-09-16 13:23:00,75.7,58.4,29.69,South,180,6.3,-999.0,55,-99.99,,,0.00,Acu-Link.com,2013-09-16 20:23:00,
2013-09-16 13:38:00,76.1,58.7,29.68,SW,225,5.8,-999.0,55,-99.99,,,0.00,Acu-Link.com,2013-09-16 20:38:00,
2013-09-16 13:53:00,75.0,57.7,29.68,ESE,112,5.3,-999.0,55,-99.99,,,0.00,Acu-Link.com,2013-09-16 20:53:00,
2013-09-16 14:08:00,74.3,58.1,29.67,WSW,247,7.8,-999.0,57,-99.99,,,0.00,Acu-Link.com,2013-09-16 21:08:00,
2013-09-16 14:23:00,72.7,57.5,29.66,West,270,7.8,-999.0,59,-99.99,,,0.00,Acu-Link.com,2013-09-16 21:23:00,
2013-09-16 14:38:00,72.1,57.0,29.66,NW,315,7.8,-999.0,59,-99.99,,,0.00,Acu-Link.com,2013-09-16 21:38:00,
2013-09-16 14:54:00,72.7,57.1,29.65,NNE,22,9.9,-999.0,58,-99.99,,,0.00,Acu-Link.com,2013-09-16 21:54:00,
2013-09-16 15:09:00,74.1,56.9,29.65,South,180,2.7,-999.0,55,-99.99,,,0.00,Acu-Link.com,2013-09-16 22:09:00,
2013-09-16 15:24:00,76.8,57.3,29.64,WNW,292,1.7,-999.0,51,-99.99,,,0.00,Acu-Link.com,2013-09-16 22:24:00,
2013-09-16 15:40:00,79.0,57.6,29.64,North,0,1.7,-999.0,48,-99.99,,,0.00,Acu-Link.com,2013-09-16 22:40:00,
2013-09-16 15:55:00,75.2,57.4,29.64,NNE,22,11.4,-999.0,54,-99.99,,,0.00,Acu-Link.com,2013-09-16 22:55:00,
2013-09-16 16:10:00,75.9,58.0,29.62,ESE,112,2.2,-999.0,54,-99.99,,,0.00,Acu-Link.com,2013-09-16 23:10:00,
2013-09-16 16:25:00,79.7,58.3,29.62,West,270,3.2,-999.0,48,-99.99,,,0.00,Acu-Link.com,2013-09-16 23:25:00,
2013-09-16 16:41:00,80.1,58.0,29.62,West,270,4.7,-999.0,47,-99.99,,,0.00,Acu-Link.com,2013-09-16 23:41:00,
2013-09-16 16:56:00,79.0,58.2,29.61,NW,315,2.2,-999.0,49,-99.99,,,0.00,Acu-Link.com,2013-09-16 23:56:00,
2013-09-16 17:11:00,76.6,58.2,29.61,NNW,337,3.7,-999.0,53,-99.99,,,0.00,Acu-Link.com,2013-09-17 00:11:00,
2013-09-16 17:26:00,73.2,57.5,29.61,ENE,67,6.8,-999.0,58,-99.99,,,0.00,Acu-Link.com,2013-09-17 00:26:00,
2013-09-16 17:41:00,72.0,58.3,29.61,SW,225,3.2,-999.0,62,-99.99,,,0.00,Acu-Link.com,2013-09-17 00:41:00,
2013-09-16 17:56:00,71.4,58.1,29.61,NNE,22,4.2,-999.0,63,-99.99,,,0.00,Acu-Link.com,2013-09-17 00:56:00,
2013-09-16 18:11:00,70.7,58.3,29.61,North,0,2.7,-999.0,65,-99.99,,,0.00,Acu-Link.com,2013-09-17 01:11:00,
2013-09-16 18:26:00,65.8,57.3,29.61,NE,45,5.8,-999.0,74,-99.99,,,0.00,Acu-Link.com,2013-09-17 01:26:00,
2013-09-16 18:41:00,64.2,57.2,29.61,SSE,157,5.8,-999.0,78,-99.99,,,0.00,Acu-Link.com,2013-09-17 01:41:00,
2013-09-16 18:57:00,62.6,57.4,29.61,ENE,67,4.2,-999.0,83,-99.99,,,0.00,Acu-Link.com,2013-09-17 01:57:00,
2013-09-16 19:12:00,61.9,57.0,29.60,NNE,22,5.8,-999.0,84,-99.99,,,0.00,Acu-Link.com,2013-09-17 02:12:00,
2013-09-16 19:27:00,61.3,56.7,29.60,SW,225,3.2,-999.0,85,-99.99,,,0.00,Acu-Link.com,2013-09-17 02:27:00,
2013-09-16 19:42:00,60.8,56.9,29.61,East,90,3.2,-999.0,87,-99.99,,,0.00,Acu-Link.com,2013-09-17 02:42:00,
2013-09-16 19:57:00,60.3,57.0,29.60,NW,315,2.2,-999.0,89,-99.99,,,0.00,Acu-Link.com,2013-09-17 02:57:00,
2013-09-16 20:13:00,59.9,57.0,29.61,NNW,337,4.2,-999.0,90,-99.99,,,0.00,Acu-Link.com,2013-09-17 03:13:00,
2013-09-16 20:28:00,59.9,57.0,29.61,WNW,292,9.4,-999.0,90,-99.99,,,0.00,Acu-Link.com,2013-09-17 03:28:00,
2013-09-16 20:43:00,59.4,56.8,29.62,SSE,157,6.8,-999.0,91,-99.99,,,0.00,Acu-Link.com,2013-09-17 03:43:00,
2013-09-16 20:59:00,59.2,56.6,29.61,ENE,67,3.2,-999.0,91,-99.99,,,0.00,Acu-Link.com,2013-09-17 03:59:00,
2013-09-16 21:14:00,59.0,56.4,29.62,ESE,112,1.7,-999.0,91,-99.99,,,0.00,Acu-Link.com,2013-09-17 04:14:00,
2013-09-16 21:29:00,58.8,56.2,29.62,NE,45,2.2,-999.0,91,-99.99,,,0.00,Acu-Link.com,2013-09-17 04:29:00,
2013-09-16 21:44:00,58.6,56.3,29.63,NNW,337,4.2,-999.0,92,-99.99,,,0.00,Acu-Link.com,2013-09-17 04:44:00,
2013-09-16 22:00:00,58.5,56.5,29.63,SE,135,4.2,-999.0,93,-99.99,,,0.00,Acu-Link.com,2013-09-17 05:00:00,
2013-09-16 22:15:00,58.5,56.8,29.63,WSW,247,4.2,-999.0,94,-99.99,,,0.00,Acu-Link.com,2013-09-17 05:15:00,
2013-09-16 22:30:00,58.5,57.1,29.64,East,90,3.2,-999.0,95,-99.99,,,0.00,Acu-Link.com,2013-09-17 05:30:00,
2013-09-16 22:45:00,58.6,57.2,29.63,West,270,8.3,-999.0,95,-99.99,,,0.00,Acu-Link.com,2013-09-17 05:45:00,
2013-09-16 23:00:00,58.6,57.2,29.64,West,270,8.9,-999.0,95,-99.99,,,0.00,Acu-Link.com,2013-09-17 06:00:00,
2013-09-16 23:15:00,58.6,57.2,29.64,West,270,7.8,-999.0,95,-99.99,,,0.00,Acu-Link.com,2013-09-17 06:15:00,
2013-09-16 23:30:00,58.6,57.2,29.65,West,270,9.4,-999.0,95,-99.99,,,0.00,Acu-Link.com,2013-09-17 06:30:00,
2013-09-16 23:45:00,58.6,57.2,29.65,NW,315,6.8,-999.0,95,-99.99,,,0.00,Acu-Link.com,2013-09-17 06:45:00,